sensor_id;sensor_type;location;lat;lon;timestamp;pressure;altitude;pressure_sealevel;temperature;humidity
17311;BME280;8773;43.300;0.394;2023-01-30T00:02:11;101090.53;;;4.34;67.89
17311;BME280;8773;43.300;0.394;2023-01-30T00:04:39;101090.16;;;4.57;67.01
17311;BME280;8773;43.300;0.394;2023-01-30T00:07:08;101086.72;;;4.71;66.46
17311;BME280;8773;43.300;0.394;2023-01-30T00:09:36;101086.88;;;4.84;66.28
17311;BME280;8773;43.300;0.394;2023-01-30T00:12:05;101089.09;;;4.91;66.05
17311;BME280;8773;43.300;0.394;2023-01-30T00:14:33;101095.09;;;4.95;65.60
17311;BME280;8773;43.300;0.394;2023-01-30T00:17:01;101091.31;;;4.99;65.56
17311;BME280;8773;43.300;0.394;2023-01-30T00:19:29;101091.75;;;4.91;65.58
17311;BME280;8773;43.300;0.394;2023-01-30T00:21:57;101089.19;;;4.74;66.26
17311;BME280;8773;43.300;0.394;2023-01-30T00:24:27;101094.47;;;4.74;66.46
17311;BME280;8773;43.300;0.394;2023-01-30T00:26:55;101087.59;;;4.56;66.05
17311;BME280;8773;43.300;0.394;2023-01-30T00:29:24;101095.16;;;4.46;66.79
17311;BME280;8773;43.300;0.394;2023-01-30T00:31:51;101091.22;;;4.69;66.40
17311;BME280;8773;43.300;0.394;2023-01-30T00:34:20;101083.13;;;4.88;65.78
17311;BME280;8773;43.300;0.394;2023-01-30T00:36:48;101078.78;;;4.87;65.13
17311;BME280;8773;43.300;0.394;2023-01-30T00:39:34;101083.47;;;4.97;65.64
17311;BME280;8773;43.300;0.394;2023-01-30T00:42:02;101076.00;;;5.04;64.91
17311;BME280;8773;43.300;0.394;2023-01-30T00:44:48;101080.94;;;5.10;65.38
17311;BME280;8773;43.300;0.394;2023-01-30T00:47:33;101078.25;;;4.64;65.73
17311;BME280;8773;43.300;0.394;2023-01-30T00:50:01;101075.88;;;4.75;65.79
17311;BME280;8773;43.300;0.394;2023-01-30T00:52:29;101076.47;;;4.81;65.81
17311;BME280;8773;43.300;0.394;2023-01-30T00:54:58;101089.09;;;4.91;65.23
17311;BME280;8773;43.300;0.394;2023-01-30T00:57:26;101084.31;;;4.98;64.84
17311;BME280;8773;43.300;0.394;2023-01-30T00:59:55;101076.31;;;4.84;65.51
17311;BME280;8773;43.300;0.394;2023-01-30T01:02:23;101082.88;;;4.92;65.41
17311;BME280;8773;43.300;0.394;2023-01-30T01:04:51;101083.03;;;4.89;65.11
17311;BME280;8773;43.300;0.394;2023-01-30T01:07:19;101081.00;;;4.94;65.18
17311;BME280;8773;43.300;0.394;2023-01-30T01:09:47;101080.56;;;5.02;64.71
17311;BME280;8773;43.300;0.394;2023-01-30T01:12:17;101081.22;;;5.05;64.88
17311;BME280;8773;43.300;0.394;2023-01-30T01:14:45;101084.53;;;5.09;63.83
17311;BME280;8773;43.300;0.394;2023-01-30T01:17:13;101081.72;;;5.12;63.57
17311;BME280;8773;43.300;0.394;2023-01-30T01:19:41;101084.09;;;5.17;63.33
17311;BME280;8773;43.300;0.394;2023-01-30T01:22:09;101084.69;;;5.22;63.54
17311;BME280;8773;43.300;0.394;2023-01-30T01:24:37;101096.06;;;5.24;62.88
17311;BME280;8773;43.300;0.394;2023-01-30T01:27:05;101092.38;;;5.26;63.03
17311;BME280;8773;43.300;0.394;2023-01-30T01:29:35;101104.75;;;5.26;63.27
17311;BME280;8773;43.300;0.394;2023-01-30T01:32:03;101101.09;;;5.28;63.18
17311;BME280;8773;43.300;0.394;2023-01-30T01:34:31;101101.34;;;5.24;63.11
17311;BME280;8773;43.300;0.394;2023-01-30T01:36:59;101103.91;;;5.25;62.99
17311;BME280;8773;43.300;0.394;2023-01-30T01:39:27;101109.28;;;5.24;62.92
17311;BME280;8773;43.300;0.394;2023-01-30T01:42:16;101110.66;;;5.15;63.49
17311;BME280;8773;43.300;0.394;2023-01-30T01:45:13;101125.53;;;5.18;63.37
17311;BME280;8773;43.300;0.394;2023-01-30T01:47:48;101126.81;;;5.10;63.35
17311;BME280;8773;43.300;0.394;2023-01-30T01:50:24;101130.84;;;5.02;63.53
17311;BME280;8773;43.300;0.394;2023-01-30T01:52:54;101133.00;;;4.95;63.66
17311;BME280;8773;43.300;0.394;2023-01-30T01:55:24;101131.88;;;4.99;63.87
17311;BME280;8773;43.300;0.394;2023-01-30T01:57:55;101137.19;;;4.99;63.91
17311;BME280;8773;43.300;0.394;2023-01-30T02:00:26;101133.75;;;4.97;63.80
17311;BME280;8773;43.300;0.394;2023-01-30T02:02:56;101136.22;;;5.00;63.33
17311;BME280;8773;43.300;0.394;2023-01-30T02:05:29;101141.91;;;5.08;63.38
17311;BME280;8773;43.300;0.394;2023-01-30T02:08:01;101138.25;;;5.11;63.55
17311;BME280;8773;43.300;0.394;2023-01-30T02:10:36;101143.63;;;5.09;62.92
17311;BME280;8773;43.300;0.394;2023-01-30T02:13:08;101147.38;;;5.05;63.33
17311;BME280;8773;43.300;0.394;2023-01-30T02:15:38;101149.09;;;5.06;63.91
17311;BME280;8773;43.300;0.394;2023-01-30T02:18:06;101156.63;;;4.98;63.54
17311;BME280;8773;43.300;0.394;2023-01-30T02:20:54;101161.56;;;5.04;63.82
17311;BME280;8773;43.300;0.394;2023-01-30T02:23:50;101166.69;;;5.07;64.01
17311;BME280;8773;43.300;0.394;2023-01-30T02:26:52;101165.16;;;5.03;63.45
17311;BME280;8773;43.300;0.394;2023-01-30T02:29:58;101157.88;;;5.07;63.38
17311;BME280;8773;43.300;0.394;2023-01-30T02:32:40;101158.50;;;5.12;63.17
17311;BME280;8773;43.300;0.394;2023-01-30T02:35:19;101149.44;;;5.16;63.09
17311;BME280;8773;43.300;0.394;2023-01-30T02:38:01;101149.28;;;5.19;63.01
17311;BME280;8773;43.300;0.394;2023-01-30T02:40:41;101145.44;;;4.93;62.97
17311;BME280;8773;43.300;0.394;2023-01-30T02:43:22;101143.91;;;4.89;63.01
17311;BME280;8773;43.300;0.394;2023-01-30T02:45:56;101126.00;;;4.94;62.83
17311;BME280;8773;43.300;0.394;2023-01-30T02:48:34;101127.78;;;4.94;62.61
17311;BME280;8773;43.300;0.394;2023-01-30T02:51:09;101124.44;;;4.59;63.91
17311;BME280;8773;43.300;0.394;2023-01-30T02:53:39;101119.16;;;4.59;63.09
17311;BME280;8773;43.300;0.394;2023-01-30T02:56:07;101114.53;;;4.47;62.55
17311;BME280;8773;43.300;0.394;2023-01-30T02:58:40;101104.28;;;4.40;62.95
17311;BME280;8773;43.300;0.394;2023-01-30T03:01:37;101105.56;;;4.49;62.19
17311;BME280;8773;43.300;0.394;2023-01-30T03:07:17;101094.31;;;4.61;60.23
17311;BME280;8773;43.300;0.394;2023-01-30T03:09:57;101080.81;;;4.66;60.36
17311;BME280;8773;43.300;0.394;2023-01-30T03:12:37;101071.78;;;4.70;59.73
17311;BME280;8773;43.300;0.394;2023-01-30T03:15:11;101071.78;;;4.70;59.28
17311;BME280;8773;43.300;0.394;2023-01-30T03:17:43;101066.50;;;4.38;59.46
17311;BME280;8773;43.300;0.394;2023-01-30T03:20:14;101068.31;;;4.54;59.32
17311;BME280;8773;43.300;0.394;2023-01-30T03:22:43;101071.19;;;4.65;58.31
17311;BME280;8773;43.300;0.394;2023-01-30T03:25:15;101071.69;;;4.71;58.24
17311;BME280;8773;43.300;0.394;2023-01-30T03:27:44;101066.66;;;4.83;57.86
17311;BME280;8773;43.300;0.394;2023-01-30T03:30:13;101065.47;;;4.88;57.41
17311;BME280;8773;43.300;0.394;2023-01-30T03:32:41;101068.03;;;4.90;57.37
17311;BME280;8773;43.300;0.394;2023-01-30T03:35:09;101065.38;;;4.74;56.86
17311;BME280;8773;43.300;0.394;2023-01-30T03:37:38;101073.81;;;4.65;57.29
17311;BME280;8773;43.300;0.394;2023-01-30T03:40:07;101063.78;;;4.56;56.91
17311;BME280;8773;43.300;0.394;2023-01-30T03:42:36;101060.34;;;4.69;57.27
17311;BME280;8773;43.300;0.394;2023-01-30T03:45:05;101073.47;;;4.71;57.45
17311;BME280;8773;43.300;0.394;2023-01-30T03:47:33;101076.81;;;4.74;57.35
17311;BME280;8773;43.300;0.394;2023-01-30T03:50:01;101087.91;;;4.81;56.92
17311;BME280;8773;43.300;0.394;2023-01-30T03:52:29;101081.34;;;4.88;56.52
17311;BME280;8773;43.300;0.394;2023-01-30T03:54:59;101090.03;;;4.90;56.32
17311;BME280;8773;43.300;0.394;2023-01-30T03:57:27;101087.81;;;4.98;57.05
17311;BME280;8773;43.300;0.394;2023-01-30T03:59:55;101090.97;;;4.89;56.92
17311;BME280;8773;43.300;0.394;2023-01-30T04:02:23;101092.44;;;4.95;57.50
17311;BME280;8773;43.300;0.394;2023-01-30T04:04:52;101091.41;;;4.97;57.22
17311;BME280;8773;43.300;0.394;2023-01-30T04:07:20;101091.25;;;5.00;56.54
17311;BME280;8773;43.300;0.394;2023-01-30T04:09:48;101094.81;;;4.99;56.67
17311;BME280;8773;43.300;0.394;2023-01-30T04:12:18;101099.25;;;4.83;57.07
17311;BME280;8773;43.300;0.394;2023-01-30T04:14:46;101101.91;;;4.83;57.40
17311;BME280;8773;43.300;0.394;2023-01-30T04:17:14;101109.84;;;4.83;57.92
17311;BME280;8773;43.300;0.394;2023-01-30T04:19:42;101122.81;;;4.56;58.87
17311;BME280;8773;43.300;0.394;2023-01-30T04:22:10;101132.88;;;4.50;59.45
17311;BME280;8773;43.300;0.394;2023-01-30T04:24:38;101141.59;;;4.52;58.02
17311;BME280;8773;43.300;0.394;2023-01-30T04:27:06;101144.47;;;4.63;57.59
17311;BME280;8773;43.300;0.394;2023-01-30T04:29:36;101144.66;;;4.75;57.39
17311;BME280;8773;43.300;0.394;2023-01-30T04:32:04;101153.03;;;4.84;57.04
17311;BME280;8773;43.300;0.394;2023-01-30T04:34:32;101165.16;;;4.88;56.54
17311;BME280;8773;43.300;0.394;2023-01-30T04:37:00;101173.03;;;4.89;56.54
17311;BME280;8773;43.300;0.394;2023-01-30T04:39:29;101180.59;;;4.80;56.82
17311;BME280;8773;43.300;0.394;2023-01-30T04:41:57;101187.19;;;4.88;56.80
17311;BME280;8773;43.300;0.394;2023-01-30T04:44:25;101198.31;;;4.95;57.11
17311;BME280;8773;43.300;0.394;2023-01-30T04:46:54;101195.56;;;4.96;57.11
17311;BME280;8773;43.300;0.394;2023-01-30T04:49:22;101189.81;;;5.04;56.85
17311;BME280;8773;43.300;0.394;2023-01-30T04:51:51;101188.81;;;5.06;57.06
17311;BME280;8773;43.300;0.394;2023-01-30T04:54:19;101179.94;;;5.07;57.08
17311;BME280;8773;43.300;0.394;2023-01-30T04:56:47;101174.22;;;4.99;56.84
17311;BME280;8773;43.300;0.394;2023-01-30T04:59:15;101181.41;;;4.97;57.11
17311;BME280;8773;43.300;0.394;2023-01-30T05:01:43;101180.47;;;4.98;56.84
17311;BME280;8773;43.300;0.394;2023-01-30T05:04:12;101177.38;;;4.90;57.07
17311;BME280;8773;43.300;0.394;2023-01-30T05:06:40;101175.75;;;4.88;56.57
17311;BME280;8773;43.300;0.394;2023-01-30T05:09:08;101185.56;;;4.86;56.73
17311;BME280;8773;43.300;0.394;2023-01-30T05:11:36;101189.06;;;4.86;56.96
17311;BME280;8773;43.300;0.394;2023-01-30T05:14:05;101190.00;;;4.85;57.82
17311;BME280;8773;43.300;0.394;2023-01-30T05:16:33;101189.41;;;4.96;57.53
17311;BME280;8773;43.300;0.394;2023-01-30T05:19:01;101173.16;;;4.70;57.08
17311;BME280;8773;43.300;0.394;2023-01-30T05:21:30;101174.00;;;4.55;58.49
17311;BME280;8773;43.300;0.394;2023-01-30T05:23:58;101155.59;;;4.69;58.00
17311;BME280;8773;43.300;0.394;2023-01-30T05:26:26;101159.69;;;4.75;57.55
17311;BME280;8773;43.300;0.394;2023-01-30T05:28:56;101166.69;;;4.76;57.22
17311;BME280;8773;43.300;0.394;2023-01-30T05:31:24;101176.00;;;4.83;57.06
17311;BME280;8773;43.300;0.394;2023-01-30T05:33:53;101167.38;;;4.80;57.57
17311;BME280;8773;43.300;0.394;2023-01-30T05:36:22;101167.22;;;4.83;57.37
17311;BME280;8773;43.300;0.394;2023-01-30T05:38:51;101160.00;;;4.69;56.73
17311;BME280;8773;43.300;0.394;2023-01-30T05:41:19;101169.66;;;4.70;56.10
17311;BME280;8773;43.300;0.394;2023-01-30T05:43:48;101164.13;;;4.74;55.17
17311;BME280;8773;43.300;0.394;2023-01-30T05:46:17;101165.75;;;4.77;55.48
17311;BME280;8773;43.300;0.394;2023-01-30T05:48:46;101165.34;;;4.85;55.09
17311;BME280;8773;43.300;0.394;2023-01-30T05:51:16;101163.63;;;4.84;54.39
17311;BME280;8773;43.300;0.394;2023-01-30T05:53:44;101163.44;;;4.71;55.13
17311;BME280;8773;43.300;0.394;2023-01-30T05:56:14;101166.41;;;4.49;54.78
17311;BME280;8773;43.300;0.394;2023-01-30T05:58:42;101161.19;;;4.63;55.59
17311;BME280;8773;43.300;0.394;2023-01-30T06:01:11;101144.91;;;4.71;54.78
17311;BME280;8773;43.300;0.394;2023-01-30T06:03:39;101144.84;;;4.57;54.11
17311;BME280;8773;43.300;0.394;2023-01-30T06:06:10;101145.16;;;4.51;55.34
17311;BME280;8773;43.300;0.394;2023-01-30T06:08:39;101145.50;;;4.60;55.38
17311;BME280;8773;43.300;0.394;2023-01-30T06:11:09;101129.63;;;4.60;55.21
17311;BME280;8773;43.300;0.394;2023-01-30T06:13:39;101125.63;;;4.53;54.98
17311;BME280;8773;43.300;0.394;2023-01-30T06:16:12;101131.25;;;4.63;55.57
17311;BME280;8773;43.300;0.394;2023-01-30T06:18:41;101129.66;;;4.76;55.37
17311;BME280;8773;43.300;0.394;2023-01-30T06:21:09;101120.69;;;4.78;55.40
17311;BME280;8773;43.300;0.394;2023-01-30T06:23:37;101123.16;;;4.82;54.53
17311;BME280;8773;43.300;0.394;2023-01-30T06:26:05;101124.94;;;4.81;54.50
17311;BME280;8773;43.300;0.394;2023-01-30T06:28:35;101124.03;;;4.82;54.92
17311;BME280;8773;43.300;0.394;2023-01-30T06:31:06;101112.59;;;4.82;55.17
17311;BME280;8773;43.300;0.394;2023-01-30T06:33:35;101124.19;;;4.79;54.33
17311;BME280;8773;43.300;0.394;2023-01-30T06:36:03;101119.50;;;4.84;55.32
17311;BME280;8773;43.300;0.394;2023-01-30T06:38:31;101119.41;;;4.86;55.22
17311;BME280;8773;43.300;0.394;2023-01-30T06:41:00;101129.31;;;4.82;55.11
17311;BME280;8773;43.300;0.394;2023-01-30T06:43:28;101124.69;;;4.86;55.33
17311;BME280;8773;43.300;0.394;2023-01-30T06:45:57;101115.91;;;4.85;55.90
17311;BME280;8773;43.300;0.394;2023-01-30T06:48:27;101115.13;;;4.83;56.08
17311;BME280;8773;43.300;0.394;2023-01-30T06:50:55;101110.09;;;4.78;56.15
17311;BME280;8773;43.300;0.394;2023-01-30T06:53:23;101107.47;;;4.78;56.70
17311;BME280;8773;43.300;0.394;2023-01-30T06:55:56;101094.47;;;4.74;56.73
17311;BME280;8773;43.300;0.394;2023-01-30T06:58:25;101101.22;;;4.64;56.66
17311;BME280;8773;43.300;0.394;2023-01-30T07:00:53;101104.56;;;4.52;57.01
17311;BME280;8773;43.300;0.394;2023-01-30T07:03:21;101098.94;;;4.58;57.57
17311;BME280;8773;43.300;0.394;2023-01-30T07:05:51;101102.16;;;4.63;58.09
17311;BME280;8773;43.300;0.394;2023-01-30T07:08:19;101112.16;;;4.58;57.16
17311;BME280;8773;43.300;0.394;2023-01-30T07:10:49;101103.19;;;4.44;56.48
17311;BME280;8773;43.300;0.394;2023-01-30T07:13:18;101106.88;;;4.25;57.69
17311;BME280;8773;43.300;0.394;2023-01-30T07:15:46;101106.97;;;4.23;58.72
17311;BME280;8773;43.300;0.394;2023-01-30T07:18:14;101111.28;;;4.41;58.16
17311;BME280;8773;43.300;0.394;2023-01-30T07:20:45;101106.44;;;4.50;58.52
17311;BME280;8773;43.300;0.394;2023-01-30T07:23:15;101115.81;;;4.55;58.47
17311;BME280;8773;43.300;0.394;2023-01-30T07:25:43;101132.38;;;4.59;58.34
17311;BME280;8773;43.300;0.394;2023-01-30T07:28:11;101140.88;;;4.48;57.72
17311;BME280;8773;43.300;0.394;2023-01-30T07:30:39;101140.72;;;4.51;57.50
17311;BME280;8773;43.300;0.394;2023-01-30T07:33:07;101141.06;;;4.61;57.47
17311;BME280;8773;43.300;0.394;2023-01-30T07:35:36;101142.19;;;4.72;57.66
17311;BME280;8773;43.300;0.394;2023-01-30T07:38:04;101144.91;;;4.71;57.36
17311;BME280;8773;43.300;0.394;2023-01-30T07:40:34;101142.03;;;4.60;58.16
17311;BME280;8773;43.300;0.394;2023-01-30T07:43:04;101149.09;;;4.75;58.22
17311;BME280;8773;43.300;0.394;2023-01-30T07:45:35;101162.16;;;4.78;58.06
17311;BME280;8773;43.300;0.394;2023-01-30T07:48:04;101156.47;;;4.86;57.07
17311;BME280;8773;43.300;0.394;2023-01-30T07:50:32;101170.50;;;4.70;56.49
17311;BME280;8773;43.300;0.394;2023-01-30T07:53:02;101177.38;;;4.90;56.07
17311;BME280;8773;43.300;0.394;2023-01-30T07:55:30;101169.97;;;4.97;55.85
17311;BME280;8773;43.300;0.394;2023-01-30T07:58:00;101170.44;;;5.03;55.28
17311;BME280;8773;43.300;0.394;2023-01-30T08:00:28;101178.31;;;5.05;55.47
17311;BME280;8773;43.300;0.394;2023-01-30T08:02:56;101181.63;;;5.08;55.64
17311;BME280;8773;43.300;0.394;2023-01-30T08:05:24;101188.28;;;5.16;55.53
17311;BME280;8773;43.300;0.394;2023-01-30T08:07:54;101182.22;;;5.14;55.70
17311;BME280;8773;43.300;0.394;2023-01-30T08:10:23;101189.06;;;5.18;55.53
17311;BME280;8773;43.300;0.394;2023-01-30T08:12:51;101192.66;;;5.17;55.78
17311;BME280;8773;43.300;0.394;2023-01-30T08:15:21;101204.28;;;5.30;56.32
17311;BME280;8773;43.300;0.394;2023-01-30T08:17:53;101208.13;;;5.40;55.79
17311;BME280;8773;43.300;0.394;2023-01-30T08:20:22;101217.22;;;5.50;55.69
17311;BME280;8773;43.300;0.394;2023-01-30T08:22:50;101215.00;;;5.58;55.61
17311;BME280;8773;43.300;0.394;2023-01-30T08:25:18;101218.41;;;5.60;55.48
17311;BME280;8773;43.300;0.394;2023-01-30T08:27:47;101213.28;;;5.57;54.83
17311;BME280;8773;43.300;0.394;2023-01-30T08:30:15;101226.97;;;5.65;55.64
17311;BME280;8773;43.300;0.394;2023-01-30T08:32:45;101235.16;;;5.61;54.73
17311;BME280;8773;43.300;0.394;2023-01-30T08:35:14;101248.94;;;5.67;55.46
17311;BME280;8773;43.300;0.394;2023-01-30T08:37:42;101257.63;;;5.69;55.09
17311;BME280;8773;43.300;0.394;2023-01-30T08:40:11;101260.47;;;5.66;55.33
17311;BME280;8773;43.300;0.394;2023-01-30T08:42:40;101262.59;;;5.75;54.88
17311;BME280;8773;43.300;0.394;2023-01-30T08:45:10;101267.59;;;5.96;54.82
17311;BME280;8773;43.300;0.394;2023-01-30T08:47:38;101274.06;;;6.06;55.23
17311;BME280;8773;43.300;0.394;2023-01-30T08:50:09;101280.53;;;6.16;53.30
17311;BME280;8773;43.300;0.394;2023-01-30T08:52:37;101281.06;;;6.07;52.44
17311;BME280;8773;43.300;0.394;2023-01-30T08:55:06;101284.41;;;6.10;53.20
17311;BME280;8773;43.300;0.394;2023-01-30T08:57:35;101280.69;;;6.29;53.17
17311;BME280;8773;43.300;0.394;2023-01-30T09:00:04;101278.75;;;6.47;52.64
17311;BME280;8773;43.300;0.394;2023-01-30T09:02:32;101276.72;;;6.66;52.95
17311;BME280;8773;43.300;0.394;2023-01-30T09:05:00;101287.91;;;6.71;51.83
17311;BME280;8773;43.300;0.394;2023-01-30T09:07:30;101290.91;;;6.79;52.33
17311;BME280;8773;43.300;0.394;2023-01-30T09:09:58;101302.31;;;6.67;51.77
17311;BME280;8773;43.300;0.394;2023-01-30T09:12:26;101303.38;;;5.89;51.32
17311;BME280;8773;43.300;0.394;2023-01-30T09:14:54;101296.97;;;5.61;51.67
17311;BME280;8773;43.300;0.394;2023-01-30T09:17:24;101306.72;;;5.76;51.97
17311;BME280;8773;43.300;0.394;2023-01-30T09:19:52;101304.06;;;5.76;52.61
17311;BME280;8773;43.300;0.394;2023-01-30T09:22:20;101313.53;;;5.81;53.31
17311;BME280;8773;43.300;0.394;2023-01-30T09:24:49;101314.22;;;5.84;52.85
17311;BME280;8773;43.300;0.394;2023-01-30T09:27:17;101309.31;;;6.08;52.24
17311;BME280;8773;43.300;0.394;2023-01-30T09:29:45;101301.94;;;6.13;52.19
17311;BME280;8773;43.300;0.394;2023-01-30T09:32:14;101295.34;;;6.20;52.80
17311;BME280;8773;43.300;0.394;2023-01-30T09:34:42;101307.53;;;5.93;51.90
17311;BME280;8773;43.300;0.394;2023-01-30T09:37:10;101317.28;;;5.92;51.49
17311;BME280;8773;43.300;0.394;2023-01-30T09:39:38;101326.75;;;6.12;49.79
17311;BME280;8773;43.300;0.394;2023-01-30T09:45:26;101315.72;;;6.50;50.85
17311;BME280;8773;43.300;0.394;2023-01-30T09:48:05;101299.72;;;6.80;49.68
17311;BME280;8773;43.300;0.394;2023-01-30T09:51:29;101310.28;;;7.09;48.73
17311;BME280;8773;43.300;0.394;2023-01-30T09:54:09;101298.69;;;7.25;48.64
17311;BME280;8773;43.300;0.394;2023-01-30T09:56:41;101291.69;;;6.95;47.83
17311;BME280;8773;43.300;0.394;2023-01-30T09:59:16;101283.25;;;7.03;48.32
17311;BME280;8773;43.300;0.394;2023-01-30T10:01:53;101277.31;;;7.40;47.70
17311;BME280;8773;43.300;0.394;2023-01-30T10:04:30;101282.00;;;7.64;46.65
17311;BME280;8773;43.300;0.394;2023-01-30T10:07:06;101286.31;;;7.52;47.63
17311;BME280;8773;43.300;0.394;2023-01-30T10:09:41;101291.66;;;7.24;47.36
17311;BME280;8773;43.300;0.394;2023-01-30T10:12:24;101290.31;;;7.45;48.23
17311;BME280;8773;43.300;0.394;2023-01-30T10:15:16;101298.00;;;7.76;47.97
17311;BME280;8773;43.300;0.394;2023-01-30T10:18:01;101306.91;;;7.90;46.66
17311;BME280;8773;43.300;0.394;2023-01-30T10:20:42;101303.19;;;7.92;45.22
17311;BME280;8773;43.300;0.394;2023-01-30T10:23:24;101297.19;;;8.03;45.66
17311;BME280;8773;43.300;0.394;2023-01-30T10:26:01;101310.16;;;8.07;45.96
17311;BME280;8773;43.300;0.394;2023-01-30T10:28:34;101309.38;;;7.93;45.12
17311;BME280;8773;43.300;0.394;2023-01-30T10:31:04;101299.84;;;8.03;44.07
17311;BME280;8773;43.300;0.394;2023-01-30T10:33:37;101311.19;;;7.92;44.01
17311;BME280;8773;43.300;0.394;2023-01-30T10:36:13;101313.97;;;7.76;45.01
17311;BME280;8773;43.300;0.394;2023-01-30T10:38:44;101306.88;;;8.04;44.58
17311;BME280;8773;43.300;0.394;2023-01-30T10:41:23;101309.53;;;8.17;45.05
17311;BME280;8773;43.300;0.394;2023-01-30T10:43:58;101321.41;;;7.98;43.58
17311;BME280;8773;43.300;0.394;2023-01-30T10:46:38;101317.84;;;7.58;42.80
17311;BME280;8773;43.300;0.394;2023-01-30T10:49:14;101323.19;;;7.01;44.81
17311;BME280;8773;43.300;0.394;2023-01-30T10:51:53;101323.63;;;7.22;45.28
17311;BME280;8773;43.300;0.394;2023-01-30T10:54:26;101325.94;;;7.69;44.35
17311;BME280;8773;43.300;0.394;2023-01-30T10:57:01;101330.53;;;7.94;43.77
17311;BME280;8773;43.300;0.394;2023-01-30T10:59:44;101326.47;;;8.16;42.75
17311;BME280;8773;43.300;0.394;2023-01-30T11:02:23;101327.88;;;8.21;43.69
17311;BME280;8773;43.300;0.394;2023-01-30T11:04:58;101329.78;;;8.19;43.35
17311;BME280;8773;43.300;0.394;2023-01-30T11:07:29;101319.34;;;8.16;43.21
17311;BME280;8773;43.300;0.394;2023-01-30T11:09:58;101323.34;;;8.09;42.41
17311;BME280;8773;43.300;0.394;2023-01-30T11:12:26;101312.88;;;7.93;41.57
17311;BME280;8773;43.300;0.394;2023-01-30T11:14:56;101322.00;;;7.89;42.59
17311;BME280;8773;43.300;0.394;2023-01-30T11:17:31;101315.00;;;7.88;42.67
17311;BME280;8773;43.300;0.394;2023-01-30T11:20:06;101307.69;;;7.77;43.45
17311;BME280;8773;43.300;0.394;2023-01-30T11:22:44;101303.50;;;7.88;43.41
17311;BME280;8773;43.300;0.394;2023-01-30T11:25:15;101300.19;;;7.84;43.81
17311;BME280;8773;43.300;0.394;2023-01-30T11:27:51;101293.34;;;7.53;43.74
17311;BME280;8773;43.300;0.394;2023-01-30T11:30:21;101294.13;;;7.41;44.50
17311;BME280;8773;43.300;0.394;2023-01-30T11:33:04;101291.13;;;7.19;44.44
17311;BME280;8773;43.300;0.394;2023-01-30T11:35:41;101293.97;;;7.16;44.23
17311;BME280;8773;43.300;0.394;2023-01-30T11:38:18;101291.00;;;7.20;44.35
17311;BME280;8773;43.300;0.394;2023-01-30T11:40:47;101297.66;;;6.99;44.85
17311;BME280;8773;43.300;0.394;2023-01-30T11:43:15;101287.03;;;6.85;44.86
17311;BME280;8773;43.300;0.394;2023-01-30T11:45:46;101286.66;;;6.91;44.84
17311;BME280;8773;43.300;0.394;2023-01-30T11:48:18;101280.97;;;6.83;45.45
17311;BME280;8773;43.300;0.394;2023-01-30T11:51:09;101285.44;;;6.68;45.21
17311;BME280;8773;43.300;0.394;2023-01-30T11:53:40;101278.06;;;6.43;44.73
17311;BME280;8773;43.300;0.394;2023-01-30T11:56:15;101275.66;;;6.38;46.80
17311;BME280;8773;43.300;0.394;2023-01-30T11:58:51;101272.25;;;6.36;46.25
17311;BME280;8773;43.300;0.394;2023-01-30T12:01:26;101264.19;;;6.38;47.30
17311;BME280;8773;43.300;0.394;2023-01-30T12:03:56;101266.94;;;6.36;47.24
17311;BME280;8773;43.300;0.394;2023-01-30T12:06:29;101267.78;;;6.53;45.42
17311;BME280;8773;43.300;0.394;2023-01-30T12:08:58;101267.59;;;6.26;46.11
17311;BME280;8773;43.300;0.394;2023-01-30T12:11:29;101261.03;;;5.87;47.78
17311;BME280;8773;43.300;0.394;2023-01-30T12:14:20;101259.91;;;6.51;46.99
17311;BME280;8773;43.300;0.394;2023-01-30T12:16:59;101252.72;;;6.53;46.69
17311;BME280;8773;43.300;0.394;2023-01-30T12:19:43;101256.97;;;6.84;46.15
17311;BME280;8773;43.300;0.394;2023-01-30T12:22:20;101255.09;;;7.15;45.97
17311;BME280;8773;43.300;0.394;2023-01-30T12:24:56;101258.50;;;7.17;46.25
17311;BME280;8773;43.300;0.394;2023-01-30T12:27:36;101263.00;;;7.29;45.19
17311;BME280;8773;43.300;0.394;2023-01-30T12:30:20;101263.66;;;7.32;43.92
17311;BME280;8773;43.300;0.394;2023-01-30T12:32:50;101256.50;;;6.92;45.00
17311;BME280;8773;43.300;0.394;2023-01-30T12:35:30;101243.16;;;7.49;46.42
17311;BME280;8773;43.300;0.394;2023-01-30T12:38:11;101243.34;;;7.72;44.80
17311;BME280;8773;43.300;0.394;2023-01-30T12:40:50;101237.34;;;7.56;43.81
17311;BME280;8773;43.300;0.394;2023-01-30T12:46:27;101231.16;;;7.83;44.57
17311;BME280;8773;43.300;0.394;2023-01-30T12:49:15;101227.34;;;7.87;44.42
17311;BME280;8773;43.300;0.394;2023-01-30T12:52:02;101233.56;;;7.73;43.06
17311;BME280;8773;43.300;0.394;2023-01-30T12:54:48;101232.31;;;7.78;44.15
17311;BME280;8773;43.300;0.394;2023-01-30T12:57:26;101229.03;;;7.88;43.20
17311;BME280;8773;43.300;0.394;2023-01-30T13:00:08;101227.91;;;7.24;44.56
17311;BME280;8773;43.300;0.394;2023-01-30T13:02:51;101228.22;;;7.60;44.80
17311;BME280;8773;43.300;0.394;2023-01-30T13:05:33;101229.03;;;7.88;43.82
17311;BME280;8773;43.300;0.394;2023-01-30T13:08:17;101224.31;;;7.78;43.53
17311;BME280;8773;43.300;0.394;2023-01-30T13:10:53;101214.09;;;7.72;43.55
17311;BME280;8773;43.300;0.394;2023-01-30T13:13:35;101215.00;;;7.86;42.82
17311;BME280;8773;43.300;0.394;2023-01-30T13:16:14;101205.03;;;8.02;42.92
17311;BME280;8773;43.300;0.394;2023-01-30T13:18:46;101210.56;;;7.99;42.32
17311;BME280;8773;43.300;0.394;2023-01-30T13:21:20;101212.22;;;7.87;42.94
17311;BME280;8773;43.300;0.394;2023-01-30T13:24:05;101204.63;;;7.41;42.50
17311;BME280;8773;43.300;0.394;2023-01-30T13:26:41;101208.25;;;6.99;43.91
17311;BME280;8773;43.300;0.394;2023-01-30T13:29:13;101209.19;;;7.13;45.10
17311;BME280;8773;43.300;0.394;2023-01-30T13:31:48;101195.66;;;7.30;43.76
17311;BME280;8773;43.300;0.394;2023-01-30T13:34:24;101195.97;;;7.52;43.54
17311;BME280;8773;43.300;0.394;2023-01-30T13:36:57;101199.56;;;7.51;43.87
17311;BME280;8773;43.300;0.394;2023-01-30T13:39:32;101192.81;;;7.60;44.20
17311;BME280;8773;43.300;0.394;2023-01-30T13:42:13;101178.81;;;7.83;43.95
17311;BME280;8773;43.300;0.394;2023-01-30T13:44:44;101166.91;;;7.89;43.98
17311;BME280;8773;43.300;0.394;2023-01-30T13:47:29;101167.38;;;7.95;42.84